KELN/ELN METAR and TAF weather

Enter ICAO airport designator
Station Type Date Time Source
KELN METAR 2022/09/28 17:53 UTC NOAA

KELN 281753Z AUTO 14003KT 10SM CLR 18/10 A2992 RMK AO2 SLP123 T01830100 10183 20094 50001


Station Type Date Time Source
KELN Decoded METAR 2022/09/28 17:53 UTC NOAA

ELLENSBURG BOWERS FIELD, WA, United States (KELN) 47-02N 120-32W 519M
Sep 28, 2022 - 01:53 PM EDT / 2022.09.28 1753 UTC
Wind: from the SE (140 degrees) at 3 MPH (3 KT):0
Visibility: 10 mile(s):0
Sky conditions: clear
Temperature: 64.9 F (18.3 C)
Dew Point: 50.0 F (10.0 C)
Relative Humidity: 58%
Pressure (altimeter): 29.92 in. Hg (1013 hPa)
Pressure tendency: 0.00 inches (0.1 hPa) higher than three hours ago
ob: KELN 281753Z AUTO 14003KT 10SM CLR 18/10 A2992 RMK AO2 SLP123 T01830100 10183 20094 50001
cycle: 18

Station Type Date Time Source
KELN TAF UTC NOAA

Error!

Example: see airport list